Time;durP1;ratioP1;P1;durP2;ratioP2;P2;SDS_P1;SDS_P2;PMS_P1;PMS_P2;Temp;Humidity;BMP_temperature;BMP_pressure;BME280_temperature;BME280_humidity;BME280_pressure;Samples;Min_cycle;Max_cycle;Signal;HPM_P1;HPM_P2
2024/01/30 03:05:09;;;;;;;44.93;17.87;;;;;-0.90;97662.00;;;;8308698;28;20650;-73
2024/01/30 03:09:12;;;;;;;48.63;17.53;;;;;-0.90;97656.00;;;;8321584;28;20205;-76
2024/01/30 03:13:15;;;;;;;44.10;16.40;;;;;-1.00;97659.00;;;;8315996;28;20570;-73
2024/01/30 03:17:18;;;;;;;44.47;18.00;;;;;-1.00;97665.00;;;;8322580;28;20284;-74
2024/01/30 03:21:23;;;;;;;39.90;18.13;;;;;-1.10;97662.00;;;;8327420;28;20216;-74
2024/01/30 03:25:26;;;;;;;41.73;18.43;;;;;-1.10;97669.00;;;;8322971;28;20302;-75
2024/01/30 03:29:29;;;;;;;48.30;19.63;;;;;-1.30;97650.00;;;;8321222;28;20197;-73
2024/01/30 03:33:32;;;;;;;42.03;18.43;;;;;-1.30;97652.00;;;;8320514;28;20299;-74
2024/01/30 03:37:37;;;;;;;46.40;19.23;;;;;-1.20;97654.00;;;;8314907;28;20209;-73
2024/01/30 03:41:43;;;;;;;55.00;19.90;;;;;-1.20;97650.00;;;;8321137;28;20286;-73
2024/01/30 03:45:46;;;;;;;56.80;21.43;;;;;-1.30;97650.00;;;;8316539;28;20682;-75
2024/01/30 03:49:49;;;;;;;51.30;21.57;;;;;-1.40;97644.00;;;;8310571;28;20240;-73
2024/01/30 03:53:54;;;;;;;59.90;21.33;;;;;-1.40;97644.00;;;;8315841;28;20303;-71
2024/01/30 03:57:57;;;;;;;59.77;22.43;;;;;-1.40;97642.00;;;;8319411;28;20546;-74
2024/01/30 04:02:01;;;;;;;60.70;22.87;;;;;-1.40;97639.00;;;;8316865;28;20252;-71
2024/01/30 04:06:05;;;;;;;63.30;23.30;;;;;-1.40;97643.00;;;;8309832;28;20221;-71
2024/01/30 04:10:11;;;;;;;75.10;25.03;;;;;-1.30;97641.00;;;;8307232;28;20209;-72
2024/01/30 04:14:14;;;;;;;67.33;25.17;;;;;-1.30;97645.00;;;;8305076;28;20235;-71
2024/01/30 04:18:17;;;;;;;71.90;26.30;;;;;-1.20;97650.00;;;;8316270;28;20600;-71
2024/01/30 04:22:20;;;;;;;69.60;27.23;;;;;-1.20;97644.00;;;;8312387;28;20691;-71
2024/01/30 04:26:25;;;;;;;68.80;26.40;;;;;-1.20;97626.00;;;;8304205;28;20239;-70
2024/01/30 04:30:28;;;;;;;71.83;26.03;;;;;-1.20;97636.00;;;;8305934;28;20210;-72
2024/01/30 04:34:31;;;;;;;77.40;26.43;;;;;-1.00;97642.00;;;;8313593;28;20300;-74
2024/01/30 04:38:34;;;;;;;76.73;27.47;;;;;-0.80;97638.00;;;;8304182;28;20288;-72
2024/01/30 04:42:39;;;;;;;69.70;28.77;;;;;-0.60;97629.00;;;;8307272;28;20202;-71
2024/01/30 04:46:42;;;;;;;66.80;25.50;;;;;-0.50;97629.00;;;;8310517;28;20807;-68
2024/01/30 04:50:45;;;;;;;68.87;26.80;;;;;-0.40;97627.00;;;;8311559;28;20294;-71
2024/01/30 04:54:48;;;;;;;72.10;26.07;;;;;-0.40;97623.00;;;;8316230;28;20904;-72
2024/01/30 04:58:53;;;;;;;77.60;27.67;;;;;-0.50;97624.00;;;;8314599;28;20209;-72
2024/01/30 05:02:56;;;;;;;67.60;27.20;;;;;-0.40;97635.00;;;;8322364;28;20227;-72
2024/01/30 05:06:59;;;;;;;66.90;25.03;;;;;-0.40;97638.00;;;;8313052;28;20698;-72
2024/01/30 05:11:03;;;;;;;66.57;26.23;;;;;-0.40;97628.00;;;;8320340;28;20212;-72
2024/01/30 05:15:09;;;;;;;77.73;26.80;;;;;-0.40;97637.00;;;;8319451;28;20241;-72
2024/01/30 05:19:12;;;;;;;71.87;26.47;;;;;-0.30;97626.00;;;;8315465;28;20303;-72
2024/01/30 05:23:16;;;;;;;74.77;28.13;;;;;-0.20;97627.00;;;;8316477;28;20205;-72
2024/01/30 05:27:19;;;;;;;71.77;28.77;;;;;-0.10;97621.00;;;;8318672;28;20235;-72
2024/01/30 05:31:26;;;;;;;72.60;28.00;;;;;0.00;97632.00;;;;8313382;28;20658;-72
2024/01/30 05:35:29;;;;;;;66.10;26.43;;;;;0.00;97641.00;;;;8324767;28;20540;-72
2024/01/30 05:39:32;;;;;;;65.87;24.70;;;;;0.10;97650.00;;;;8323327;28;20202;-71
2024/01/30 05:43:36;;;;;;;52.17;23.07;;;;;0.00;97657.00;;;;8330348;28;20271;-72
2024/01/30 05:47:40;;;;;;;52.23;21.97;;;;;-0.10;97668.00;;;;8325968;28;20224;-72
2024/01/30 05:51:43;;;;;;;51.30;20.73;;;;;-0.20;97666.00;;;;8324708;28;20231;-72
2024/01/30 05:55:47;;;;;;;49.00;19.63;;;;;-0.30;97668.00;;;;8331154;28;20304;-71
2024/01/30 05:59:51;;;;;;;36.30;17.70;;;;;-0.50;97667.00;;;;8324794;28;20237;-72
2024/01/30 06:03:56;;;;;;;39.97;18.63;;;;;-0.60;97670.00;;;;8328837;28;20279;-72
2024/01/30 06:07:59;;;;;;;57.90;21.67;;;;;-0.70;97666.00;;;;8321920;28;20253;-72
2024/01/30 06:12:04;;;;;;;61.57;23.13;;;;;-0.80;97667.00;;;;8324483;28;20200;-72
2024/01/30 06:16:10;;;;;;;56.30;20.87;;;;;-0.80;97673.00;;;;8326009;28;20288;-73
2024/01/30 06:20:15;;;;;;;59.47;25.33;;;;;-0.90;97674.00;;;;8322389;28;20225;-72
2024/01/30 06:24:18;;;;;;;60.30;24.90;;;;;-1.10;97668.00;;;;8322333;28;20292;-72
2024/01/30 06:28:22;;;;;;;53.97;22.13;;;;;-1.10;97666.00;;;;8299790;28;20235;-73
2024/01/30 06:32:25;;;;;;;60.53;23.50;;;;;-1.10;97673.00;;;;8321598;28;20328;-70
2024/01/30 06:36:30;;;;;;;59.00;23.83;;;;;-1.30;97674.00;;;;8316570;28;20674;-71
2024/01/30 06:40:33;;;;;;;61.67;23.73;;;;;-1.30;97675.00;;;;8321198;28;20199;-69
2024/01/30 06:44:37;;;;;;;56.80;23.77;;;;;-1.30;97672.00;;;;8320523;28;20208;-72
2024/01/30 06:48:40;;;;;;;64.87;25.30;;;;;-1.40;97681.00;;;;8313653;28;20324;-71
2024/01/30 06:52:45;;;;;;;57.30;23.37;;;;;-1.40;97674.00;;;;8314906;28;20734;-71
2024/01/30 06:56:48;;;;;;;55.30;22.77;;;;;-1.30;97678.00;;;;8314950;28;20213;-71
2024/01/30 07:00:52;;;;;;;62.77;23.10;;;;;-1.30;97681.00;;;;8317273;28;20209;-71
2024/01/30 07:04:55;;;;;;;66.30;24.30;;;;;-1.30;97679.00;;;;8313375;28;20231;-71
2024/01/30 07:09:00;;;;;;;61.47;24.10;;;;;-1.20;97678.00;;;;8315834;28;20201;-73
2024/01/30 07:13:05;;;;;;;60.27;24.80;;;;;-1.10;97688.00;;;;8316010;28;20228;-70
2024/01/30 07:17:08;;;;;;;63.10;23.67;;;;;-1.00;97694.00;;;;8315375;28;20571;-71
2024/01/30 07:21:11;;;;;;;66.87;24.50;;;;;-0.90;97685.00;;;;8311793;28;20212;-71
2024/01/30 07:25:16;;;;;;;65.60;25.10;;;;;-0.80;97688.00;;;;8312202;28;20209;-71
2024/01/30 07:29:20;;;;;;;59.83;25.13;;;;;-0.80;97689.00;;;;8312253;28;20205;-70
2024/01/30 07:33:23;;;;;;;64.23;24.30;;;;;-0.70;97686.00;;;;8312382;28;20216;-71
2024/01/30 07:37:26;;;;;;;64.37;25.83;;;;;-0.50;97694.00;;;;8318377;28;20289;-70
2024/01/30 07:41:31;;;;;;;66.97;26.47;;;;;-0.40;97694.00;;;;8312792;28;20245;-70
2024/01/30 07:45:34;;;;;;;72.47;27.53;;;;;-0.10;97695.00;;;;8309777;28;20237;-72
2024/01/30 07:49:38;;;;;;;73.63;27.37;;;;;0.20;97698.00;;;;8310316;28;20292;-72
2024/01/30 07:53:44;;;;;;;65.63;26.90;;;;;0.50;97710.00;;;;8307025;28;20202;-69
2024/01/30 07:57:49;;;;;;;74.23;27.90;;;;;0.70;97702.00;;;;8307188;28;20237;-70
2024/01/30 08:01:55;;;;;;;65.97;26.20;;;;;0.90;97711.00;;;;8307003;28;20317;-71
2024/01/30 08:05:59;;;;;;;61.83;25.90;;;;;1.10;97722.00;;;;8308861;28;20347;-70
2024/01/30 08:10:03;;;;;;;68.00;26.30;;;;;1.20;97727.00;;;;8309960;28;20247;-71
2024/01/30 08:14:08;;;;;;;58.97;24.37;;;;;1.30;97715.00;;;;8312412;28;20215;-69
2024/01/30 08:18:11;;;;;;;58.90;23.87;;;;;1.40;97725.00;;;;8312904;28;20288;-70
2024/01/30 08:22:14;;;;;;;55.87;23.50;;;;;1.40;97723.00;;;;8313774;28;20885;-70
2024/01/30 08:26:17;;;;;;;61.87;24.30;;;;;1.50;97718.00;;;;8305156;28;20235;-70
2024/01/30 08:30:22;;;;;;;63.87;25.17;;;;;1.60;97717.00;;;;8311369;28;20292;-69
2024/01/30 08:34:25;;;;;;;55.80;25.50;;;;;1.80;97712.00;;;;8313728;28;20289;-69
2024/01/30 08:38:28;;;;;;;61.20;25.93;;;;;1.90;97716.00;;;;8305678;28;20804;-69
2024/01/30 08:42:33;;;;;;;57.47;25.60;;;;;2.00;97714.00;;;;8303436;28;20235;-70
2024/01/30 08:46:37;;;;;;;58.87;25.33;;;;;2.10;97726.00;;;;8304970;28;20225;-70
2024/01/30 08:50:40;;;;;;;56.20;25.60;;;;;2.20;97715.00;;;;8300808;28;20205;-68
2024/01/30 08:54:44;;;;;;;55.20;24.10;;;;;2.30;97717.00;;;;8328355;28;20206;-71
2024/01/30 08:58:47;;;;;;;60.97;26.47;;;;;2.40;97715.00;;;;8332385;28;20199;-70
2024/01/30 09:02:51;;;;;;;60.43;25.60;;;;;2.50;97719.00;;;;8332201;28;20226;-70
2024/01/30 09:06:54;;;;;;;54.03;24.43;;;;;2.70;97723.00;;;;8332307;28;20671;-71
2024/01/30 09:10:58;;;;;;;62.87;25.57;;;;;2.80;97719.00;;;;8331452;28;20210;-71
2024/01/30 09:15:01;;;;;;;58.33;26.23;;;;;3.00;97726.00;;;;8331802;28;20206;-71
2024/01/30 09:19:06;;;;;;;53.87;26.70;;;;;3.10;97733.00;;;;8330573;28;20531;-71
2024/01/30 09:23:10;;;;;;;53.10;25.47;;;;;3.30;97719.00;;;;8332069;28;20280;-71
2024/01/30 09:27:14;;;;;;;59.23;26.23;;;;;3.40;97729.00;;;;8330885;28;20270;-71
2024/01/30 09:31:17;;;;;;;61.67;27.37;;;;;3.60;97727.00;;;;8331081;28;20231;-71
2024/01/30 09:35:25;;;;;;;59.03;26.07;;;;;3.70;97718.00;;;;8331360;28;20184;-71
2024/01/30 09:39:28;;;;;;;53.20;25.60;;;;;3.90;97720.00;;;;8330846;28;20244;-71
2024/01/30 09:43:34;;;;;;;54.97;25.93;;;;;4.00;97732.00;;;;8331598;28;20192;-71
2024/01/30 09:47:42;;;;;;;51.53;25.40;;;;;4.20;97731.00;;;;8330248;28;20566;-69
2024/01/30 09:51:49;;;;;;;50.27;24.87;;;;;4.30;97735.00;;;;8330966;28;20272;-70
2024/01/30 09:55:52;;;;;;;54.00;24.57;;;;;4.50;97746.00;;;;8331548;28;20531;-70
2024/01/30 09:59:55;;;;;;;53.10;25.90;;;;;4.60;97745.00;;;;8329942;28;20243;-70
2024/01/30 10:03:58;;;;;;;54.63;24.80;;;;;4.70;97741.00;;;;8330294;28;20251;-70
2024/01/30 10:08:08;;;;;;;53.20;25.17;;;;;4.80;97738.00;;;;8329944;28;20264;-70
2024/01/30 10:12:11;;;;;;;46.33;23.53;;;;;4.90;97735.00;;;;8331205;28;20222;-70
2024/01/30 10:16:15;;;;;;;52.30;25.63;;;;;5.00;97719.00;;;;8330766;28;20220;-70
2024/01/30 10:20:19;;;;;;;46.47;23.93;;;;;5.20;97726.00;;;;8332526;28;20534;-70
2024/01/30 10:24:26;;;;;;;52.10;23.57;;;;;5.30;97715.00;;;;8336530;28;20193;-70
2024/01/30 10:28:30;;;;;;;47.20;23.97;;;;;5.30;97710.00;;;;8337137;28;20638;-69
2024/01/30 10:32:33;;;;;;;47.77;22.60;;;;;5.40;97710.00;;;;8336402;28;20197;-68
2024/01/30 10:36:42;;;;;;;48.53;23.07;;;;;5.50;97710.00;;;;8337102;28;20189;-70
2024/01/30 10:40:55;;;;;;;45.17;22.67;;;;;5.60;97704.00;;;;8337029;28;20185;-68
2024/01/30 10:45:03;;;;;;;43.90;21.93;;;;;5.70;97698.00;;;;8337029;28;20189;-68
2024/01/30 10:49:07;;;;;;;42.10;21.10;;;;;5.70;97701.00;;;;8336920;28;20292;-68
2024/01/30 10:53:14;;;;;;;45.87;23.17;;;;;5.80;97705.00;;;;8336102;28;20242;-68
2024/01/30 10:57:19;;;;;;;48.13;21.83;;;;;5.80;97698.00;;;;8336637;28;20197;-67
2024/01/30 11:01:23;;;;;;;46.20;22.53;;;;;5.90;97691.00;;;;8336325;28;20193;-68
2024/01/30 11:05:29;;;;;;;47.10;21.33;;;;;6.10;97693.00;;;;8335877;28;20235;-67
2024/01/30 11:09:38;;;;;;;44.37;21.80;;;;;6.20;97691.00;;;;8336235;28;20206;-67
2024/01/30 11:13:43;;;;;;;46.50;22.20;;;;;6.30;97694.00;;;;8336719;28;20185;-67
2024/01/30 11:17:52;;;;;;;40.07;21.07;;;;;6.50;97687.00;;;;8335998;28;20193;-67
2024/01/30 11:21:56;;;;;;;43.23;20.73;;;;;6.70;97692.00;;;;8336809;28;20688;-68
2024/01/30 11:26:02;;;;;;;39.97;20.07;;;;;6.90;97686.00;;;;8336623;28;20717;-68
2024/01/30 11:30:08;;;;;;;39.63;20.80;;;;;7.10;97681.00;;;;8335074;28;20263;-68
2024/01/30 11:34:12;;;;;;;37.60;19.83;;;;;7.20;97674.00;;;;8335102;28;20186;-68
2024/01/30 11:38:16;;;;;;;39.00;20.03;;;;;7.40;97671.00;;;;8334371;28;20208;-68
2024/01/30 11:42:20;;;;;;;39.00;20.73;;;;;7.60;97667.00;;;;8336236;28;20216;-68
2024/01/30 11:46:27;;;;;;;35.30;18.10;;;;;7.80;97664.00;;;;8333502;28;20194;-69
2024/01/30 11:50:31;;;;;;;31.57;18.10;;;;;8.00;97657.00;;;;8334375;28;20213;-69
2024/01/30 11:54:34;;;;;;;35.10;18.63;;;;;8.20;97651.00;;;;8334483;28;20189;-70
2024/01/30 11:58:37;;;;;;;32.23;18.70;;;;;8.30;97651.00;;;;8334670;28;20630;-70
2024/01/30 12:02:42;;;;;;;36.40;19.87;;;;;8.40;97654.00;;;;8332331;28;20225;-69
2024/01/30 12:06:45;;;;;;;32.03;17.70;;;;;8.40;97655.00;;;;8333528;28;20194;-71
2024/01/30 12:10:56;;;;;;;36.07;18.70;;;;;8.40;97656.00;;;;8332662;28;20189;-71
2024/01/30 12:14:59;;;;;;;34.20;18.63;;;;;8.40;97654.00;;;;8333280;28;20217;-71
2024/01/30 12:19:04;;;;;;;33.53;18.55;;;;;8.50;97650.00;;;;8333736;28;20202;-71
2024/01/30 12:23:07;;;;;;;29.80;17.10;;;;;8.60;97661.00;;;;8332634;28;20201;-71
2024/01/30 12:27:10;;;;;;;32.13;17.73;;;;;8.70;97647.00;;;;8334854;28;20392;-71
2024/01/30 12:31:13;;;;;;;37.93;18.93;;;;;8.80;97640.00;;;;8333752;28;20232;-71
2024/01/30 12:35:19;;;;;;;43.10;21.02;;;;;8.90;97643.00;;;;8335306;28;20224;-71
2024/01/30 12:39:23;;;;;;;32.63;18.55;;;;;8.90;97645.00;;;;8333159;28;20225;-72
2024/01/30 12:43:26;;;;;;;33.50;18.65;;;;;9.00;97630.00;;;;8332570;28;20204;-71
2024/01/30 12:47:40;;;;;;;34.17;18.08;;;;;9.00;97636.00;;;;8331574;28;20320;-72
2024/01/30 12:51:47;;;;;;;32.47;17.15;;;;;9.10;97627.00;;;;8333024;28;20220;-72
2024/01/30 12:55:50;;;;;;;31.27;17.47;;;;;9.00;97622.00;;;;8333842;28;20621;-73
2024/01/30 12:59:53;;;;;;;30.85;17.35;;;;;9.10;97616.00;;;;8331913;28;20202;-73
2024/01/30 13:03:58;;;;;;;31.23;17.40;;;;;9.10;97615.00;;;;8332025;28;20690;-74
2024/01/30 13:08:03;;;;;;;34.97;18.87;;;;;9.10;97617.00;;;;8332636;28;20571;-75
2024/01/30 13:12:06;;;;;;;37.42;19.10;;;;;9.00;97607.00;;;;8332672;28;20635;-74
2024/01/30 13:16:10;;;;;;;32.47;18.23;;;;;8.90;97620.00;;;;8332487;28;20193;-74
2024/01/30 13:20:16;;;;;;;34.35;18.65;;;;;8.80;97611.00;;;;8331791;28;20201;-75
2024/01/30 13:24:21;;;;;;;38.77;18.43;;;;;8.70;97611.00;;;;8331570;28;20189;-74
2024/01/30 13:28:25;;;;;;;34.27;18.70;;;;;8.70;97616.00;;;;8331672;28;20224;-76
2024/01/30 13:32:28;;;;;;;39.92;19.17;;;;;8.70;97617.00;;;;8331771;28;20201;-74
2024/01/30 13:36:32;;;;;;;34.80;18.95;;;;;8.70;97613.00;;;;8331176;28;20201;-74
2024/01/30 13:40:36;;;;;;;36.10;18.77;;;;;8.80;97609.00;;;;8331291;28;20190;-76
2024/01/30 13:44:39;;;;;;;31.10;17.42;;;;;8.70;97609.00;;;;8330071;28;20288;-82
2024/01/30 13:48:43;;;;;;;35.58;18.90;;;;;8.70;97609.00;;;;8330766;28;20225;-81
2024/01/30 13:52:46;;;;;;;39.78;20.50;;;;;8.60;97610.00;;;;8331745;28;20283;-82
2024/01/30 13:56:51;;;;;;;37.83;19.42;;;;;8.60;97614.00;;;;8336750;28;20194;-82
2024/01/30 14:00:54;;;;;;;33.03;19.05;;;;;8.60;97616.00;;;;8337809;28;20212;-82
2024/01/30 14:04:58;;;;;;;43.55;19.92;;;;;8.50;97615.00;;;;8336979;28;20240;-80
2024/01/30 14:09:02;;;;;;;34.25;18.35;;;;;8.40;97614.00;;;;8337699;28;20316;-80
2024/01/30 14:13:12;;;;;;;31.70;17.50;;;;;8.30;97623.00;;;;8337343;28;20189;-81
2024/01/30 14:17:15;;;;;;;29.13;17.40;;;;;8.30;97619.00;;;;8337930;28;20251;-80
2024/01/30 14:21:18;;;;;;;33.47;19.43;;;;;8.20;97622.00;;;;8338412;28;20527;-81
2024/01/30 14:25:22;;;;;;;35.10;18.30;;;;;8.10;97617.00;;;;8337410;28;20229;-80
2024/01/30 14:29:27;;;;;;;33.47;18.93;;;;;8.00;97616.00;;;;8338037;28;20364;-80
2024/01/30 14:33:30;;;;;;;31.37;18.50;;;;;7.90;97621.00;;;;8337609;28;20193;-80
2024/01/30 14:37:33;;;;;;;36.60;19.77;;;;;7.80;97629.00;;;;8336823;28;20194;-80
2024/01/30 14:41:36;;;;;;;37.43;19.23;;;;;7.70;97628.00;;;;8336977;28;20216;-80
2024/01/30 14:45:45;;;;;;;35.37;18.93;;;;;7.70;97632.00;;;;8334947;28;20535;-81
2024/01/30 14:49:49;;;;;;;33.17;18.33;;;;;7.70;97634.00;;;;8333723;28;20225;-81
2024/01/30 14:53:52;;;;;;;51.33;24.70;;;;;7.60;97634.00;;;;8335194;28;20284;-80
2024/01/30 14:58:02;;;;;;;1137.37;509.30;;;;;7.50;97628.00;;;;8335836;28;20197;-83
2024/01/30 15:02:07;;;;;;;598.17;231.65;;;;;7.50;97632.00;;;;8335094;28;20689;-83
2024/01/30 15:06:10;;;;;;;514.10;193.33;;;;;7.40;97634.00;;;;8334301;28;20271;-84
2024/01/30 15:10:13;;;;;;;807.50;332.83;;;;;7.30;97638.00;;;;8358952;28;20315;-83
2024/01/30 15:14:17;;;;;;;992.30;395.03;;;;;7.20;97630.00;;;;8368226;28;20246;-79
2024/01/30 15:18:21;;;;;;;79.83;36.87;;;;;7.10;97624.00;;;;8368909;28;20283;-84
2024/01/30 15:22:24;;;;;;;44.70;23.83;;;;;7.00;97637.00;;;;8367537;28;20201;-81
2024/01/30 15:26:28;;;;;;;45.20;21.83;;;;;6.90;97641.00;;;;8368229;28;20196;-81
2024/01/30 15:30:31;;;;;;;39.63;21.90;;;;;6.90;97638.00;;;;8368089;28;20320;-80
2024/01/30 15:34:35;;;;;;;48.53;26.10;;;;;6.80;97638.00;;;;8367236;28;20201;-78
2024/01/30 15:38:39;;;;;;;43.17;20.70;;;;;6.70;97645.00;;;;8366367;28;20207;-78
2024/01/30 15:42:43;;;;;;;39.00;20.73;;;;;6.60;97647.00;;;;8366737;28;20201;-78
2024/01/30 15:46:46;;;;;;;45.10;20.37;;;;;6.50;97649.00;;;;8366940;28;20208;-81
2024/01/30 15:50:51;;;;;;;38.57;19.60;;;;;6.30;97652.00;;;;8367291;28;20220;-80
2024/01/30 15:54:57;;;;;;;35.93;19.17;;;;;6.20;97662.00;;;;8368705;28;20228;-79
2024/01/30 15:59:01;;;;;;;40.57;20.00;;;;;6.00;97663.00;;;;8367194;28;20227;-80
2024/01/30 16:03:05;;;;;;;40.50;21.47;;;;;5.90;97665.00;;;;8367222;28;20232;-80
2024/01/30 16:07:11;;;;;;;37.27;20.40;;;;;5.70;97670.00;;;;8368131;28;20188;-79
2024/01/30 16:11:17;;;;;;;45.10;22.20;;;;;5.60;97667.00;;;;8367374;28;20228;-80
2024/01/30 16:15:21;;;;;;;43.77;22.13;;;;;5.40;97665.00;;;;8367993;28;20208;-79
2024/01/30 16:19:24;;;;;;;45.83;22.33;;;;;5.30;97665.00;;;;8366396;28;20198;-83
2024/01/30 16:23:29;;;;;;;50.53;23.67;;;;;5.20;97672.00;;;;8366197;28;20235;-81
2024/01/30 16:27:32;;;;;;;48.57;28.00;;;;;5.10;97674.00;;;;8366548;28;20238;-80
2024/01/30 16:31:35;;;;;;;49.30;25.67;;;;;5.00;97668.00;;;;8366636;28;20235;-78
2024/01/30 16:35:40;;;;;;;45.30;23.20;;;;;4.90;97684.00;;;;8366729;28;20208;-79
2024/01/30 16:39:50;;;;;;;51.57;23.10;;;;;4.80;97681.00;;;;8365509;28;20636;-79
2024/01/30 16:43:53;;;;;;;47.17;22.93;;;;;4.70;97694.00;;;;8366382;28;20695;-78
2024/01/30 16:47:57;;;;;;;46.20;22.67;;;;;4.40;97693.00;;;;8365747;28;20671;-77
2024/01/30 16:52:00;;;;;;;44.90;22.37;;;;;4.20;97697.00;;;;8366192;28;20723;-77
2024/01/30 16:56:07;;;;;;;45.93;22.20;;;;;4.00;97699.00;;;;8365978;28;20203;-78
2024/01/30 17:00:11;;;;;;;47.93;23.13;;;;;3.80;97696.00;;;;8366596;28;20618;-79
2024/01/30 17:04:16;;;;;;;48.47;23.10;;;;;3.60;97695.00;;;;8365749;28;20677;-79
2024/01/30 17:08:22;;;;;;;48.67;22.67;;;;;3.50;97703.00;;;;8364791;28;20200;-78
2024/01/30 17:12:27;;;;;;;51.30;23.13;;;;;3.40;97691.00;;;;8364276;28;20219;-79
2024/01/30 17:16:30;;;;;;;51.23;25.67;;;;;3.30;97692.00;;;;8365901;28;20306;-79
2024/01/30 17:20:33;;;;;;;53.53;25.87;;;;;3.20;97688.00;;;;8365483;28;20233;-79
2024/01/30 17:24:37;;;;;;;50.70;24.73;;;;;3.20;97690.00;;;;8365027;28;20199;-79
2024/01/30 17:28:53;;;;;;;54.83;25.20;;;;;3.20;97696.00;;;;8364258;28;20188;-79
2024/01/30 17:32:58;;;;;;;55.07;26.33;;;;;3.20;97696.00;;;;8364264;28;20200;-80
2024/01/30 17:37:02;;;;;;;53.70;27.20;;;;;3.20;97712.00;;;;8364852;28;20188;-79
2024/01/30 17:41:05;;;;;;;56.87;27.43;;;;;3.20;97699.00;;;;8365023;28;20218;-79
2024/01/30 17:45:16;;;;;;;55.23;27.47;;;;;3.20;97697.00;;;;8364774;28;20186;-79
2024/01/30 17:49:20;;;;;;;62.40;27.40;;;;;3.20;97697.00;;;;8364266;28;20257;-79
2024/01/30 17:53:24;;;;;;;59.60;26.60;;;;;3.20;97713.00;;;;8365298;28;20195;-79
2024/01/30 17:57:29;;;;;;;63.17;28.60;;;;;3.20;97722.00;;;;8364137;28;20266;-78
2024/01/30 18:01:35;;;;;;;49.00;25.17;;;;;3.30;97725.00;;;;8364031;28;20235;-79
2024/01/30 18:05:38;;;;;;;58.63;25.77;;;;;3.20;97728.00;;;;8364949;28;20197;-78
2024/01/30 18:09:42;;;;;;;58.47;27.40;;;;;3.10;97725.00;;;;8363788;28;20227;-79
2024/01/30 18:13:45;;;;;;;55.40;26.57;;;;;3.10;97733.00;;;;8364603;28;20195;-79
2024/01/30 18:17:50;;;;;;;50.63;23.47;;;;;2.90;97736.00;;;;8362978;28;20207;-81
2024/01/30 18:21:53;;;;;;;50.10;25.33;;;;;2.80;97738.00;;;;8364216;28;20199;-81
2024/01/30 18:25:59;;;;;;;51.23;25.47;;;;;2.70;97733.00;;;;8364430;28;20206;-81
2024/01/30 18:30:04;;;;;;;57.07;27.57;;;;;2.70;97741.00;;;;8363859;28;20210;-81
2024/01/30 18:34:08;;;;;;;56.73;26.37;;;;;2.60;97738.00;;;;8363598;28;20232;-81
2024/01/30 18:38:12;;;;;;;55.80;26.77;;;;;2.50;97733.00;;;;8363622;28;20695;-81
2024/01/30 18:42:17;;;;;;;59.37;26.27;;;;;2.50;97732.00;;;;8365734;28;20193;-75
2024/01/30 18:46:23;;;;;;;55.80;26.73;;;;;2.50;97722.00;;;;8369860;28;20248;-81
2024/01/30 18:50:27;;;;;;;57.87;27.73;;;;;2.50;97734.00;;;;8368022;28;20204;-80
2024/01/30 18:54:31;;;;;;;60.53;27.73;;;;;2.50;97722.00;;;;8367248;28;20206;-77
2024/01/30 18:58:34;;;;;;;56.83;27.57;;;;;2.40;97732.00;;;;8369218;28;20205;-86
2024/01/30 19:02:37;;;;;;;59.03;27.23;;;;;2.40;97722.00;;;;8369613;28;20223;-85
2024/01/30 19:06:42;;;;;;;66.33;28.30;;;;;2.50;97726.00;;;;8369022;28;20206;-86
2024/01/30 19:10:45;;;;;;;60.73;28.87;;;;;2.50;97727.00;;;;8368121;28;20227;-89
2024/01/30 19:14:51;;;;;;;65.47;28.43;;;;;2.50;97729.00;;;;8368597;28;20196;-90
2024/01/30 19:18:54;;;;;;;60.23;28.13;;;;;2.50;97719.00;;;;8375455;28;20183;-91
2024/01/30 19:22:59;;;;;;;61.23;28.10;;;;;2.50;97729.00;;;;8372768;28;20199;-92
2024/01/30 19:27:03;;;;;;;66.27;29.20;;;;;2.60;97722.00;;;;8370075;28;20197;-92
2024/01/30 19:31:06;;;;;;;63.43;29.83;;;;;2.70;97731.00;;;;8368146;28;20218;-91
2024/01/30 19:35:09;;;;;;;69.33;29.57;;;;;2.70;97731.00;;;;8370110;28;20230;-90
2024/01/30 19:39:14;;;;;;;65.83;29.60;;;;;2.70;97741.00;;;;8373460;28;20202;-90
2024/01/30 19:43:17;;;;;;;66.93;30.67;;;;;2.80;97735.00;;;;8378201;28;20235;-94
2024/01/30 19:47:20;;;;;;;64.03;29.87;;;;;2.80;97736.00;;;;8377285;28;20608;-90
2024/01/30 19:51:25;;;;;;;67.27;29.70;;;;;2.80;97745.00;;;;8368193;28;20314;-89
2024/01/30 19:55:30;;;;;;;65.00;29.30;;;;;2.80;97741.00;;;;8368171;28;20652;-88
2024/01/30 19:59:34;;;;;;;61.97;27.93;;;;;2.80;97745.00;;;;8368381;28;20264;-91
2024/01/30 20:03:37;;;;;;;54.80;28.07;;;;;2.70;97739.00;;;;8367664;28;20225;-89
2024/01/30 20:07:40;;;;;;;62.93;29.47;;;;;2.70;97738.00;;;;8371701;28;20309;-92
2024/01/30 20:11:45;;;;;;;59.60;27.77;;;;;2.60;97733.00;;;;8371378;28;20230;-94
2024/01/30 20:15:49;;;;;;;69.10;29.60;;;;;2.60;97741.00;;;;8378735;28;20623;-96
2024/01/30 20:19:53;;;;;;;61.70;29.13;;;;;2.60;97741.00;;;;8376373;28;20199;-93
2024/01/30 20:23:57;;;;;;;67.63;29.60;;;;;2.50;97740.00;;;;8367767;28;20230;-92
2024/01/30 20:28:01;;;;;;;63.53;29.83;;;;;2.50;97743.00;;;;8366460;28;20188;-90
2024/01/30 20:32:06;;;;;;;66.63;29.90;;;;;2.50;97746.00;;;;8365674;28;20234;-86
2024/01/30 20:36:09;;;;;;;81.57;30.67;;;;;2.50;97741.00;;;;8366115;28;20299;-86
2024/01/30 20:40:12;;;;;;;65.67;28.07;;;;;2.50;97755.00;;;;8365901;28;20534;-87
2024/01/30 20:44:19;;;;;;;55.97;26.93;;;;;2.40;97750.00;;;;8366492;28;20749;-85
2024/01/30 20:48:22;;;;;;;61.77;28.07;;;;;2.30;97758.00;;;;8366028;28;20228;-82
2024/01/30 20:52:25;;;;;;;61.70;27.77;;;;;2.20;97748.00;;;;8364014;28;20221;-82
2024/01/30 20:56:30;;;;;;;64.40;28.13;;;;;2.20;97742.00;;;;8370277;28;20206;-82
2024/01/30 21:00:34;;;;;;;66.13;30.10;;;;;2.30;97757.00;;;;8362584;28;20202;-81
2024/01/30 21:04:37;;;;;;;67.13;29.20;;;;;2.20;97754.00;;;;8363478;28;20256;-80
2024/01/30 21:08:42;;;;;;;63.50;29.33;;;;;2.20;97762.00;;;;8365257;28;20234;-80
2024/01/30 21:12:45;;;;;;;71.27;30.47;;;;;2.20;97748.00;;;;8365885;28;20227;-79
2024/01/30 21:16:50;;;;;;;72.53;29.57;;;;;2.20;97754.00;;;;8362808;28;20203;-79
2024/01/30 21:20:54;;;;;;;61.97;30.00;;;;;2.20;97765.00;;;;8365537;28;20231;-78
2024/01/30 21:24:57;;;;;;;71.30;32.70;;;;;2.30;97770.00;;;;8363247;28;20202;-78
2024/01/30 21:29:01;;;;;;;72.73;32.07;;;;;2.40;97769.00;;;;8364718;28;20256;-78
2024/01/30 21:33:07;;;;;;;76.70;33.47;;;;;2.60;97770.00;;;;8362416;28;20225;-76
2024/01/30 21:37:10;;;;;;;86.17;34.93;;;;;2.80;97770.00;;;;8364410;28;20609;-78
2024/01/30 21:41:15;;;;;;;77.60;34.60;;;;;3.00;97756.00;;;;8364871;28;20200;-78
2024/01/30 21:45:20;;;;;;;80.50;32.37;;;;;3.20;97759.00;;;;8364147;28;20281;-79
2024/01/30 21:49:24;;;;;;;72.97;32.40;;;;;3.30;97762.00;;;;8362388;28;20189;-79
2024/01/30 21:53:28;;;;;;;82.67;32.67;;;;;3.50;97756.00;;;;8364065;28;20226;-80
2024/01/30 21:57:31;;;;;;;67.57;32.07;;;;;3.60;97751.00;;;;8363718;28;20653;-80
2024/01/30 22:01:34;;;;;;;71.57;31.00;;;;;3.70;97749.00;;;;8362819;28;20196;-80
2024/01/30 22:05:38;;;;;;;64.80;30.57;;;;;3.70;97738.00;;;;8363042;28;20185;-81
2024/01/30 22:09:42;;;;;;;68.07;32.03;;;;;3.80;97747.00;;;;8363303;28;20231;-81
2024/01/30 22:13:45;;;;;;;73.50;32.60;;;;;3.90;97748.00;;;;8364088;28;20223;-81
2024/01/30 22:17:48;;;;;;;72.27;31.80;;;;;3.90;97761.00;;;;8369945;28;20273;-81
2024/01/30 22:21:53;;;;;;;69.63;31.47;;;;;4.00;97758.00;;;;8370598;28;20198;-81
2024/01/30 22:25:56;;;;;;;64.03;29.97;;;;;4.10;97773.00;;;;8370353;28;20238;-80
2024/01/30 22:29:59;;;;;;;60.37;29.43;;;;;4.10;97781.00;;;;8369971;28;20287;-81
2024/01/30 22:34:03;;;;;;;57.13;27.60;;;;;4.10;97775.00;;;;8370034;28;20224;-80
2024/01/30 22:38:07;;;;;;;61.17;28.20;;;;;3.90;97770.00;;;;8370164;28;20212;-80
2024/01/30 22:42:10;;;;;;;56.70;27.30;;;;;3.80;97788.00;;;;8369942;28;20681;-79
2024/01/30 22:46:13;;;;;;;58.83;27.43;;;;;3.80;97782.00;;;;8370438;28;20235;-81
2024/01/30 22:50:19;;;;;;;53.80;26.63;;;;;3.80;97791.00;;;;8369219;28;20189;-81
2024/01/30 22:54:23;;;;;;;57.73;28.10;;;;;3.70;97791.00;;;;8370579;28;20730;-82
2024/01/30 22:58:27;;;;;;;61.10;27.40;;;;;3.70;97788.00;;;;8369085;28;20200;-80
2024/01/30 23:02:30;;;;;;;60.07;26.67;;;;;3.70;97791.00;;;;8370071;28;20235;-80
2024/01/30 23:06:33;;;;;;;56.40;26.87;;;;;3.70;97791.00;;;;8369101;28;20228;-81